Time;durP1;ratioP1;P1;durP2;ratioP2;P2;SDS_P1;SDS_P2;PMS_P1;PMS_P2;Temp;Humidity;BMP_temperature;BMP_pressure;BME280_temperature;BME280_humidity;BME280_pressure;Samples;Min_cycle;Max_cycle;Signal;HPM_P1;HPM_P2
2022/02/05 00:00:31;;;;;;;1.50;1.20;;;6.20;99.90;;;;;;5033400;28;20516;-47
2022/02/05 00:03:11;;;;;;;1.33;1.10;;;6.20;99.90;;;;;;5033439;28;20456;-47
2022/02/05 00:05:46;;;;;;;1.70;1.20;;;6.20;99.90;;;;;;5033713;28;21005;-49
2022/02/05 00:14:17;;;;;;;3.03;1.80;;;6.30;99.90;;;;;;5033239;28;20483;-48
2022/02/05 00:20:10;;;;;;;2.73;1.43;;;6.20;99.90;;;;;;5032455;28;20436;-46
2022/02/05 00:39:01;;;;;;;2.93;2.63;;;6.30;99.90;;;;;;5032748;28;20430;-49
2022/02/05 00:41:32;;;;;;;4.30;3.00;;;6.30;99.90;;;;;;5033300;28;20441;-47
2022/02/05 00:44:00;;;;;;;4.20;2.20;;;6.20;99.90;;;;;;5039733;22;20577;-50
2022/02/05 00:46:32;;;;;;;3.97;3.33;;;6.20;99.90;;;;;;5032122;28;20449;-51
2022/02/05 00:48:59;;;;;;;4.30;3.10;;;6.20;99.90;;;;;;5033289;28;20457;-51
2022/02/05 00:51:30;;;;;;;5.20;2.90;;;6.00;99.90;;;;;;5033397;28;20477;-51
2022/02/05 00:54:04;;;;;;;5.00;3.47;;;6.20;99.90;;;;;;5022868;28;20471;-51
2022/02/05 00:56:50;;;;;;;5.10;3.60;;;6.20;99.90;;;;;;5013392;28;20985;-51
2022/02/05 00:59:19;;;;;;;5.53;3.63;;;6.20;99.90;;;;;;5013199;28;20437;-51
2022/02/05 01:01:46;;;;;;;6.60;4.10;;;6.20;99.90;;;;;;5013205;28;20935;-50
2022/02/05 01:04:13;;;;;;;5.93;3.00;;;6.10;99.90;;;;;;5013254;28;20426;-51
2022/02/05 01:06:41;;;;;;;6.43;3.67;;;6.10;99.90;;;;;;5013342;28;20441;-51
2022/02/05 01:09:13;;;;;;;9.27;3.50;;;6.10;99.90;;;;;;5012981;28;20493;-50
2022/02/05 01:11:40;;;;;;;5.27;3.37;;;6.10;99.90;;;;;;5013225;28;20446;-51
2022/02/05 01:14:09;;;;;;;8.63;4.00;;;6.10;99.90;;;;;;5013088;28;20457;-52
2022/02/05 01:16:48;;;;;;;5.90;3.97;;;6.10;99.90;;;;;;5012852;28;20486;-51
2022/02/05 01:19:30;;;;;;;5.40;4.53;;;6.10;99.90;;;;;;5012923;28;20437;-52
2022/02/05 01:21:58;;;;;;;6.57;4.20;;;6.20;99.90;;;;;;5013059;28;20417;-51
2022/02/05 01:24:28;;;;;;;10.50;4.10;;;6.20;99.90;;;;;;5012938;28;20409;-51
2022/02/05 01:27:00;;;;;;;7.43;3.37;;;6.20;99.90;;;;;;5012851;28;20441;-51
2022/02/05 01:29:36;;;;;;;5.60;3.57;;;6.20;99.90;;;;;;5011949;28;20438;-51
2022/02/05 01:32:08;;;;;;;12.60;4.20;;;6.20;99.90;;;;;;5012595;28;20500;-51
2022/02/05 01:34:41;;;;;;;9.03;4.00;;;6.30;99.90;;;;;;5012803;28;20461;-51
2022/02/05 01:51:09;;;;;;;8.27;4.00;;;6.40;99.90;;;;;;5032208;28;20627;-51
2022/02/05 01:53:50;;;;;;;16.13;4.53;;;6.20;99.90;;;;;;5024549;28;20502;-51
2022/02/05 01:56:31;;;;;;;10.20;4.70;;;6.40;99.90;;;;;;5012374;28;20485;-51
2022/02/05 01:59:14;;;;;;;7.47;3.47;;;6.40;99.90;;;;;;5010797;28;20453;-51
2022/02/05 02:04:50;;;;;;;4.40;3.33;;;6.30;99.90;;;;;;5012194;28;20443;-50
2022/02/05 02:09:35;;;;;;;7.70;3.70;;;6.30;99.90;;;;;;5012250;28;20528;-51
2022/02/05 02:10:25;;;;;;;8.27;3.60;;;6.10;99.90;;;;;;5011760;28;20966;-51
2022/02/05 02:13:09;;;;;;;10.33;3.57;;;6.30;99.90;;;;;;5012167;28;20463;-50
2022/02/05 02:15:41;;;;;;;7.77;3.63;;;6.30;99.90;;;;;;5012311;28;20444;-50
2022/02/05 02:18:27;;;;;;;8.63;3.67;;;6.30;99.90;;;;;;5012110;28;20487;-51
2022/02/05 02:21:13;;;;;;;20.33;4.30;;;6.30;99.90;;;;;;5012015;28;20436;-50
2022/02/05 02:23:55;;;;;;;10.30;3.53;;;6.30;99.90;;;;;;5011929;28;20457;-51
2022/02/05 02:26:33;;;;;;;12.87;3.40;;;6.40;99.90;;;;;;5012014;28;20434;-50
2022/02/05 02:29:05;;;;;;;8.10;3.80;;;6.30;99.90;;;;;;5010326;28;20465;-51
2022/02/05 02:31:36;;;;;;;6.63;3.60;;;6.20;99.90;;;;;;5011818;28;20728;-51
2022/02/05 02:34:06;;;;;;;10.03;4.53;;;6.10;99.90;;;;;;5011838;28;20471;-51
2022/02/05 02:36:37;;;;;;;10.60;4.20;;;6.10;99.90;;;;;;5011855;28;20473;-51
2022/02/05 02:39:09;;;;;;;5.40;4.30;;;6.10;99.90;;;;;;5011660;28;20525;-50
2022/02/05 02:41:43;;;;;;;14.40;3.87;;;6.10;99.90;;;;;;5011703;28;20434;-51
2022/02/05 02:44:10;;;;;;;6.70;3.53;;;6.00;99.90;;;;;;5011574;28;20470;-49
2022/02/05 02:46:37;;;;;;;10.20;3.43;;;6.10;99.90;;;;;;5029979;28;20460;-50
2022/02/05 02:49:05;;;;;;;11.23;2.63;;;;;;;;;;5031155;28;20439;-51
2022/02/05 02:57:15;;;;;;;7.37;2.47;;;6.20;99.90;;;;;;5011717;28;20604;-50
2022/02/05 02:59:50;;;;;;;6.80;3.20;;;6.10;99.90;;;;;;5011372;28;20932;-50
2022/02/05 03:02:19;;;;;;;8.63;2.60;;;6.20;99.90;;;;;;5011643;28;20456;-50
2022/02/05 03:04:47;;;;;;;7.40;2.50;;;6.20;99.90;;;;;;5011633;28;20434;-51
2022/02/05 03:07:13;;;;;;;8.60;3.47;;;6.20;99.90;;;;;;5011594;28;20875;-51
2022/02/05 03:09:42;;;;;;;8.80;2.60;;;6.20;99.90;;;;;;5011262;28;20438;-51
2022/02/05 03:12:10;;;;;;;11.67;3.77;;;6.20;99.90;;;;;;5011639;28;20469;-50
2022/02/05 03:14:36;;;;;;;6.20;2.80;;;6.20;99.90;;;;;;5011649;28;20441;-51
2022/02/05 03:17:14;;;;;;;8.50;3.53;;;6.30;99.90;;;;;;5011246;28;20970;-50
2022/02/05 03:19:41;;;;;;;5.20;2.57;;;6.30;99.90;;;;;;5011250;28;20923;-51
2022/02/05 03:22:08;;;;;;;10.50;2.63;;;6.30;99.90;;;;;;5011592;28;20753;-51
2022/02/05 03:24:34;;;;;;;8.40;2.80;;;6.30;99.90;;;;;;5011357;28;20442;-51
2022/02/05 03:27:03;;;;;;;9.67;3.10;;;6.30;99.90;;;;;;5011345;28;20550;-50
2022/02/05 03:29:29;;;;;;;12.97;4.07;;;6.30;99.90;;;;;;5010989;28;20433;-51
2022/02/05 03:31:56;;;;;;;10.77;3.33;;;6.30;99.90;;;;;;5011247;28;20450;-51
2022/02/05 03:34:22;;;;;;;9.20;3.93;;;6.40;99.90;;;;;;5011251;28;20969;-51
2022/02/05 03:36:49;;;;;;;7.53;3.53;;;6.40;99.90;;;;;;5011317;28;20462;-51
2022/02/05 03:39:15;;;;;;;11.87;3.13;;;6.40;99.90;;;;;;5011181;28;20442;-51
2022/02/05 03:41:42;;;;;;;5.47;3.50;;;6.40;99.90;;;;;;5011291;28;20424;-51
2022/02/05 03:44:10;;;;;;;9.37;3.23;;;6.40;99.90;;;;;;5011124;28;20491;-51
2022/02/05 03:46:37;;;;;;;7.23;4.30;;;6.40;99.90;;;;;;5011338;28;20435;-50
2022/02/05 03:49:03;;;;;;;7.37;2.50;;;6.50;99.90;;;;;;5011024;28;20654;-50
2022/02/05 03:51:30;;;;;;;9.23;3.67;;;6.50;99.90;;;;;;5011183;28;20533;-51
2022/02/05 03:53:57;;;;;;;3.37;2.20;;;6.50;99.90;;;;;;5013235;28;20462;-51
2022/02/05 03:56:23;;;;;;;6.90;3.13;;;6.50;99.90;;;;;;5013185;28;20481;-51
2022/02/05 03:58:50;;;;;;;7.47;3.30;;;6.50;99.90;;;;;;5014174;28;20410;-50
2022/02/05 04:01:18;;;;;;;6.77;3.20;;;6.50;99.90;;;;;;5014652;28;20766;-51
2022/02/05 04:03:45;;;;;;;8.30;2.70;;;6.50;99.90;;;;;;5014578;28;20454;-51
2022/02/05 04:06:11;;;;;;;6.60;3.73;;;6.30;99.90;;;;;;5014478;28;20446;-51
2022/02/05 04:08:38;;;;;;;4.20;2.87;;;6.50;99.90;;;;;;5014098;28;20813;-50
2022/02/05 04:11:08;;;;;;;6.83;3.30;;;6.50;99.90;;;;;;5014445;28;20446;-51
2022/02/05 04:16:24;;;;;;;9.50;2.93;;;6.50;99.90;;;;;;5014349;28;20792;-51
2022/02/05 04:18:52;;;;;;;5.30;3.37;;;6.50;99.90;;;;;;5013892;28;20485;-51
2022/02/05 04:21:19;;;;;;;8.03;3.90;;;6.50;99.90;;;;;;5014074;28;20433;-51
2022/02/05 04:23:47;;;;;;;8.10;4.00;;;6.50;99.90;;;;;;5014030;28;20440;-51
2022/02/05 04:26:14;;;;;;;7.93;3.10;;;6.50;99.90;;;;;;5014115;28;20417;-51
2022/02/05 04:28:41;;;;;;;9.20;4.20;;;6.50;99.90;;;;;;5013675;28;20496;-50
2022/02/05 04:31:08;;;;;;;9.70;3.93;;;6.50;99.90;;;;;;5014031;28;20439;-50
2022/02/05 04:33:36;;;;;;;7.00;3.30;;;6.50;99.90;;;;;;5013820;28;20445;-51
2022/02/05 04:36:04;;;;;;;10.67;3.80;;;6.50;99.90;;;;;;5013891;28;20769;-51
2022/02/05 04:38:32;;;;;;;7.40;3.40;;;6.50;99.90;;;;;;5013236;28;20479;-50
2022/02/05 04:41:04;;;;;;;7.20;3.50;;;6.50;99.90;;;;;;5013772;28;20465;-51
2022/02/05 04:43:56;;;;;;;5.47;3.20;;;6.60;99.90;;;;;;5013672;28;20834;-51
2022/02/05 04:46:54;;;;;;;8.10;3.80;;;6.60;99.90;;;;;;5031906;28;20424;-51
2022/02/05 04:49:59;;;;;;;5.70;3.03;;;6.60;99.90;;;;;;5033351;28;20424;-50
2022/02/05 04:52:45;;;;;;;9.03;3.30;;;6.60;99.90;;;;;;5033209;28;20448;-51
2022/02/05 04:55:44;;;;;;;7.63;2.90;;;6.60;99.90;;;;;;4993902;28;20439;-51
2022/02/05 04:58:29;;;;;;;8.20;3.97;;;6.60;99.90;;;;;;4993791;28;20482;-50
2022/02/05 05:01:05;;;;;;;9.47;3.77;;;6.60;99.90;;;;;;4994009;28;20806;-51
2022/02/05 05:06:35;;;;;;;9.63;2.83;;;6.60;99.90;;;;;;4993559;28;20456;-51
2022/02/05 05:09:15;;;;;;;5.67;3.20;;;6.40;99.90;;;;;;4993350;28;20446;-51
2022/02/05 05:12:14;;;;;;;7.37;4.13;;;6.60;99.90;;;;;;4993751;28;20535;-51
2022/02/05 05:20:09;;;;;;;10.10;4.37;;;6.60;99.90;;;;;;4993438;28;20457;-51
2022/02/05 05:22:37;;;;;;;7.10;3.53;;;6.60;99.90;;;;;;4993306;28;20440;-51
2022/02/05 05:25:04;;;;;;;7.53;3.27;;;6.60;99.90;;;;;;4993713;28;20851;-51
2022/02/05 05:27:32;;;;;;;6.80;3.33;;;6.60;99.90;;;;;;5002767;28;20417;-51
2022/02/05 05:29:58;;;;;;;8.13;3.40;;;6.60;99.90;;;;;;5012523;28;20423;-51
2022/02/05 05:32:25;;;;;;;7.80;3.53;;;6.70;99.90;;;;;;5012837;28;20956;-51
2022/02/05 05:34:52;;;;;;;12.17;4.60;;;6.60;99.90;;;;;;5012847;28;20995;-51
2022/02/05 05:37:20;;;;;;;10.63;3.53;;;6.60;99.90;;;;;;5012599;28;20474;-51
2022/02/05 05:39:49;;;;;;;5.90;3.90;;;6.60;99.90;;;;;;5012711;28;20498;-51
2022/02/05 05:42:22;;;;;;;11.30;4.20;;;6.60;99.90;;;;;;5012524;28;20467;-51
2022/02/05 05:47:49;;;;;;;6.53;3.73;;;6.50;99.90;;;;;;5030310;28;20450;-50
2022/02/05 05:52:56;;;;;;;8.70;3.80;;;6.40;99.90;;;;;;5029892;28;20469;-51
2022/02/05 05:55:24;;;;;;;8.27;3.40;;;6.40;99.90;;;;;;5012416;28;20927;-50
2022/02/05 05:57:50;;;;;;;10.63;3.60;;;6.40;99.90;;;;;;5012309;28;20481;-50
2022/02/05 06:00:17;;;;;;;6.60;4.50;;;6.40;99.90;;;;;;5012091;28;20410;-51
2022/02/05 06:02:44;;;;;;;6.37;3.13;;;6.30;99.90;;;;;;5012319;28;20460;-51
2022/02/05 06:05:11;;;;;;;5.13;3.20;;;6.30;99.90;;;;;;5012411;28;20486;-51
2022/02/05 06:07:38;;;;;;;7.40;3.80;;;6.40;99.90;;;;;;5012368;28;20783;-51
2022/02/05 06:10:05;;;;;;;6.80;3.00;;;6.50;99.90;;;;;;5011915;28;20408;-51
2022/02/05 06:12:33;;;;;;;8.23;3.80;;;6.20;99.90;;;;;;5012523;28;20459;-51
2022/02/05 06:15:03;;;;;;;7.93;3.47;;;6.10;99.90;;;;;;5012335;28;20434;-51
2022/02/05 06:17:30;;;;;;;5.93;3.20;;;6.10;99.90;;;;;;5012719;28;20564;-51
2022/02/05 06:19:56;;;;;;;11.70;5.07;;;6.00;99.90;;;;;;5012075;28;20401;-51
2022/02/05 06:22:23;;;;;;;10.00;3.87;;;6.00;99.90;;;;;;5012336;28;20497;-50
2022/02/05 06:24:50;;;;;;;7.30;3.20;;;6.00;99.90;;;;;;5012067;28;20438;-50
2022/02/05 06:27:16;;;;;;;4.63;3.10;;;6.10;99.90;;;;;;5012227;28;20936;-50
2022/02/05 06:29:44;;;;;;;7.70;3.10;;;6.10;99.90;;;;;;5011873;28;20416;-51
2022/02/05 06:32:11;;;;;;;6.60;3.53;;;6.20;99.90;;;;;;5012080;28;20481;-51
2022/02/05 06:34:37;;;;;;;7.83;3.50;;;6.20;99.90;;;;;;5011938;28;20439;-51
2022/02/05 06:37:05;;;;;;;7.73;4.47;;;6.20;99.90;;;;;;5011998;28;20739;-51
2022/02/05 06:39:32;;;;;;;5.70;3.40;;;6.30;99.90;;;;;;5011533;28;20481;-50
2022/02/05 06:41:58;;;;;;;11.03;4.30;;;6.40;99.90;;;;;;5011662;28;20442;-51
2022/02/05 06:44:25;;;;;;;11.17;4.30;;;;;;;;;;5070247;22;20470;-48
2022/02/05 06:46:53;;;;;;;8.57;4.03;;;6.40;99.90;;;;;;5051631;28;20952;-47
2022/02/05 06:49:25;;;;;;;8.97;3.60;;;6.40;99.90;;;;;;5051075;28;20399;-47
2022/02/05 06:51:51;;;;;;;7.30;3.63;;;6.50;99.90;;;;;;5051234;28;20414;-48
2022/02/05 06:54:18;;;;;;;9.23;4.67;;;6.50;99.90;;;;;;5051229;28;20472;-47
2022/02/05 06:56:44;;;;;;;11.03;4.80;;;6.50;99.90;;;;;;5051163;28;20432;-49
2022/02/05 06:59:11;;;;;;;7.47;5.17;;;6.70;99.90;;;;;;5050953;28;20451;-48
2022/02/05 07:01:38;;;;;;;10.27;5.23;;;6.50;99.90;;;;;;5051220;28;20917;-48
2022/02/05 07:04:06;;;;;;;10.30;5.60;;;6.50;99.90;;;;;;5051204;28;20489;-47
2022/02/05 07:06:33;;;;;;;9.80;5.60;;;6.40;99.90;;;;;;5051323;28;20782;-47
2022/02/05 07:09:00;;;;;;;7.63;3.87;;;6.40;99.90;;;;;;5050777;28;20433;-48
2022/02/05 07:11:27;;;;;;;6.23;2.63;;;6.40;99.90;;;;;;5051289;28;20429;-49
2022/02/05 07:13:55;;;;;;;6.40;3.27;;;6.30;99.90;;;;;;5050874;28;20868;-49
2022/02/05 07:16:25;;;;;;;6.27;3.13;;;6.30;99.90;;;;;;5050914;28;20475;-47
2022/02/05 07:19:07;;;;;;;3.77;2.73;;;6.20;99.90;;;;;;5050812;28;20481;-47
2022/02/05 07:21:39;;;;;;;8.17;2.50;;;6.10;99.90;;;;;;5050989;28;20422;-49
2022/02/05 07:24:29;;;;;;;3.37;2.43;;;6.00;99.90;;;;;;5051095;28;20452;-47
2022/02/05 07:29:40;;;;;;;3.83;2.03;;;5.90;99.90;;;;;;5054062;28;20435;-47
2022/02/05 07:32:08;;;;;;;2.80;1.80;;;5.80;99.90;;;;;;5054744;28;20433;-48
2022/02/05 07:34:35;;;;;;;5.40;2.40;;;5.80;99.90;;;;;;5054496;28;20432;-48
2022/02/05 07:37:04;;;;;;;3.20;1.60;;;5.80;99.90;;;;;;5053471;28;20504;-47
2022/02/05 07:39:32;;;;;;;6.90;2.00;;;5.70;99.90;;;;;;5054185;28;20489;-48
2022/02/05 07:42:01;;;;;;;5.77;2.00;;;5.70;99.90;;;;;;5054430;28;20418;-47
2022/02/05 07:44:28;;;;;;;6.33;2.27;;;5.60;99.90;;;;;;5054209;28;20980;-49
2022/02/05 07:46:54;;;;;;;6.50;2.07;;;5.50;99.90;;;;;;5054527;28;20851;-48
2022/02/05 07:49:23;;;;;;;5.60;2.60;;;5.60;99.90;;;;;;5053790;28;20912;-49
2022/02/05 07:51:50;;;;;;;5.43;2.67;;;5.70;99.90;;;;;;5053912;28;20443;-47
2022/02/05 07:54:18;;;;;;;4.50;3.20;;;5.70;99.90;;;;;;5054202;28;20490;-47
2022/02/05 07:56:47;;;;;;;5.10;3.47;;;5.70;99.90;;;;;;5054158;28;20443;-49
2022/02/05 07:59:14;;;;;;;5.40;3.67;;;5.70;99.90;;;;;;5053660;28;20453;-48
2022/02/05 08:01:41;;;;;;;6.20;4.43;;;5.70;99.90;;;;;;5053960;28;20951;-48
2022/02/05 08:04:08;;;;;;;6.87;5.23;;;5.70;99.90;;;;;;5053776;28;20435;-50
2022/02/05 08:06:35;;;;;;;9.20;5.63;;;5.80;99.90;;;;;;5053704;28;20469;-49
2022/02/05 08:09:06;;;;;;;6.67;4.93;;;5.80;99.90;;;;;;5053334;28;20527;-47
2022/02/05 08:11:39;;;;;;;5.67;5.17;;;5.80;99.90;;;;;;5053917;28;20435;-47
2022/02/05 08:14:08;;;;;;;161.13;95.43;;;5.80;99.90;;;;;;5053327;28;20456;-48
2022/02/05 08:16:49;;;;;;;6.90;4.77;;;5.80;99.90;;;;;;5053871;28;20808;-48
2022/02/05 08:19:16;;;;;;;7.10;4.40;;;5.80;99.90;;;;;;5053301;28;20487;-50
2022/02/05 08:21:42;;;;;;;10.03;4.03;;;5.80;99.90;;;;;;5053807;28;20892;-47
2022/02/05 08:24:09;;;;;;;9.07;4.97;;;5.80;99.90;;;;;;5053607;28;20457;-49
2022/02/05 08:26:38;;;;;;;6.17;3.90;;;5.80;99.90;;;;;;5053661;28;20433;-48
2022/02/05 08:29:05;;;;;;;5.83;3.50;;;5.80;99.90;;;;;;5053244;28;20464;-47
2022/02/05 08:31:32;;;;;;;5.87;3.70;;;5.80;99.90;;;;;;5053447;28;20459;-48
2022/02/05 08:33:59;;;;;;;8.83;3.23;;;5.90;99.90;;;;;;5053256;28;20461;-46
2022/02/05 08:36:30;;;;;;;10.90;3.80;;;6.00;99.90;;;;;;5053340;28;20436;-48
2022/02/05 08:38:56;;;;;;;4.03;2.67;;;6.00;99.90;;;;;;5052628;28;20454;-48
2022/02/05 08:41:23;;;;;;;7.43;2.60;;;6.10;99.90;;;;;;5053027;28;20427;-47
2022/02/05 08:43:51;;;;;;;4.10;2.30;;;6.20;99.90;;;;;;5053117;28;20479;-48
2022/02/05 08:46:18;;;;;;;3.03;2.40;;;6.30;99.90;;;;;;5053427;28;20482;-49
2022/02/05 08:48:44;;;;;;;4.20;2.10;;;6.50;99.90;;;;;;5052893;28;20448;-47
2022/02/05 08:51:14;;;;;;;5.80;2.17;;;6.60;99.90;;;;;;5052848;28;20407;-47
2022/02/05 08:53:42;;;;;;;5.67;2.60;;;6.70;99.90;;;;;;5053466;28;20592;-47
2022/02/05 08:56:08;;;;;;;7.03;2.40;;;6.70;99.90;;;;;;5052888;28;20949;-47
2022/02/05 08:58:35;;;;;;;6.53;3.50;;;6.70;99.90;;;;;;5052546;28;20480;-47
2022/02/05 09:01:12;;;;;;;5.97;2.37;;;6.60;99.90;;;;;;5052417;28;20408;-47
2022/02/05 09:03:45;;;;;;;3.20;2.37;;;6.60;99.90;;;;;;5052635;28;20464;-48
2022/02/05 09:06:12;;;;;;;5.50;2.20;;;6.60;99.90;;;;;;5052413;28;20441;-47
2022/02/05 09:08:44;;;;;;;6.73;2.73;;;6.60;99.90;;;;;;5052163;28;20809;-47
2022/02/05 09:11:17;;;;;;;6.00;2.00;;;6.60;99.90;;;;;;5052716;28;20453;-47
2022/02/05 09:16:35;;;;;;;5.17;2.40;;;6.70;99.90;;;;;;5041256;28;20893;-47
2022/02/05 09:19:02;;;;;;;8.33;2.10;;;6.80;99.90;;;;;;5051512;28;20482;-47
2022/02/05 09:21:30;;;;;;;6.30;2.30;;;6.90;99.90;;;;;;5052123;28;20411;-46
2022/02/05 09:23:59;;;;;;;4.90;2.00;;;6.90;99.90;;;;;;5052062;28;20942;-48
2022/02/05 09:26:27;;;;;;;6.27;2.03;;;6.70;99.90;;;;;;5051841;28;20889;-49
2022/02/05 09:29:00;;;;;;;4.77;2.30;;;6.90;99.90;;;;;;5051509;28;20434;-47
2022/02/05 09:31:30;;;;;;;4.90;2.00;;;7.00;99.90;;;;;;5052281;28;20472;-46
2022/02/05 09:33:58;;;;;;;13.10;8.93;;;7.00;99.90;;;;;;5052172;28;21029;-48
2022/02/05 09:36:26;;;;;;;6.17;3.17;;;7.10;99.90;;;;;;5052020;28;20430;-47
2022/02/05 09:38:54;;;;;;;3.83;2.07;;;7.10;99.90;;;;;;5051702;28;20482;-48
2022/02/05 09:41:20;;;;;;;4.63;2.63;;;7.30;99.90;;;;;;5052116;28;20417;-48
2022/02/05 09:43:48;;;;;;;5.40;3.33;;;7.20;99.90;;;;;;5051790;28;20470;-48
2022/02/05 09:46:16;;;;;;;5.17;2.07;;;7.30;99.90;;;;;;5051728;28;20879;-46
2022/02/05 09:48:45;;;;;;;8.40;2.50;;;7.30;99.90;;;;;;5050396;28;20444;-48
2022/02/05 09:51:18;;;;;;;6.37;2.53;;;7.40;99.90;;;;;;5050943;28;20524;-48
2022/02/05 09:53:49;;;;;;;5.73;2.93;;;7.40;99.90;;;;;;5051631;28;20548;-48
2022/02/05 09:56:16;;;;;;;9.80;3.00;;;7.50;99.90;;;;;;5051971;28;20445;-51
2022/02/05 09:58:43;;;;;;;6.60;2.90;;;7.40;99.90;;;;;;5051331;28;20568;-48
2022/02/05 10:01:14;;;;;;;6.77;4.00;;;7.40;99.90;;;;;;5051714;28;20842;-47
2022/02/05 10:03:43;;;;;;;6.43;2.73;;;7.50;99.90;;;;;;5051883;28;20802;-47
2022/02/05 10:06:13;;;;;;;6.70;3.27;;;7.40;99.90;;;;;;5051461;28;20529;-47
2022/02/05 10:08:44;;;;;;;7.57;3.43;;;7.40;99.90;;;;;;5051226;28;20451;-49
2022/02/05 10:11:11;;;;;;;7.13;2.97;;;7.30;99.90;;;;;;5051124;28;20433;-46
2022/02/05 10:13:38;;;;;;;8.53;2.87;;;7.50;99.90;;;;;;5051557;28;20480;-47
2022/02/05 10:16:06;;;;;;;8.33;3.90;;;7.40;99.90;;;;;;5052008;28;20445;-47
2022/02/05 10:18:34;;;;;;;7.37;3.57;;;7.40;99.90;;;;;;5051404;28;20435;-48
2022/02/05 10:21:03;;;;;;;7.80;3.53;;;7.40;99.90;;;;;;5051383;28;20434;-46
2022/02/05 10:23:31;;;;;;;9.57;3.73;;;7.50;99.90;;;;;;5051469;28;20921;-48
2022/02/05 10:26:00;;;;;;;11.13;3.57;;;7.20;99.90;;;;;;5051089;28;20411;-48
2022/02/05 10:28:26;;;;;;;5.97;3.13;;;7.50;99.90;;;;;;5050745;28;20912;-47
2022/02/05 10:30:55;;;;;;;10.47;3.50;;;7.40;99.90;;;;;;5051646;28;20432;-47
2022/02/05 10:33:25;;;;;;;8.07;3.50;;;7.40;99.90;;;;;;5051189;28;20851;-48
2022/02/05 10:36:00;;;;;;;10.77;3.47;;;7.40;99.90;;;;;;5051023;28;20437;-47
2022/02/05 10:44:13;;;;;;;11.17;4.20;;;7.60;99.90;;;;;;5050644;28;20458;-47
2022/02/05 10:46:43;;;;;;;10.93;4.20;;;7.70;99.90;;;;;;5030933;28;20757;-47
2022/02/05 10:49:10;;;;;;;8.50;3.50;;;7.60;99.90;;;;;;5030499;28;20442;-47
2022/02/05 10:51:41;;;;;;;7.20;2.87;;;7.80;99.90;;;;;;5030924;28;20841;-47
2022/02/05 10:54:16;;;;;;;17.27;11.87;;;7.90;99.90;;;;;;5042588;28;20973;-47
2022/02/05 10:57:04;;;;;;;9.90;2.90;;;8.00;99.90;;;;;;5050482;28;20885;-47
2022/02/05 11:05:14;;;;;;;7.30;2.87;;;8.20;99.90;;;;;;5050666;28;20474;-48
2022/02/05 11:05:48;;;;;;;13.20;3.20;;;8.40;99.90;;;;;;5054207;28;20521;-48
2022/02/05 11:08:14;;;;;;;8.10;3.10;;;8.40;99.90;;;;;;5054869;28;20508;-48
2022/02/05 11:13:55;;;;;;;6.67;3.07;;;8.50;99.90;;;;;;5054482;28;20549;-48
2022/02/05 11:19:09;;;;;;;9.60;2.57;;;8.40;99.90;;;;;;5054292;28;21052;-48
2022/02/05 11:21:36;;;;;;;10.93;2.80;;;8.40;99.90;;;;;;5054160;28;20819;-47
2022/02/05 11:24:06;;;;;;;13.67;3.33;;;8.30;99.90;;;;;;5054758;28;20450;-46
2022/02/05 11:26:33;;;;;;;11.13;3.10;;;8.30;99.90;;;;;;5054610;28;20528;-47
2022/02/05 11:29:04;;;;;;;7.47;3.50;;;8.10;99.90;;;;;;5054371;28;20463;-47
2022/02/05 11:31:34;;;;;;;10.90;3.70;;;8.20;99.90;;;;;;5054985;28;20844;-47
2022/02/05 11:34:30;;;;;;;12.67;3.90;;;8.30;99.90;;;;;;5054502;28;20487;-48
2022/02/05 11:37:03;;;;;;;14.37;4.77;;;8.40;99.90;;;;;;5030354;28;20899;-47
2022/02/05 11:39:43;;;;;;;9.07;4.80;;;8.30;99.90;;;;;;5054131;28;20500;-47
2022/02/05 11:42:27;;;;;;;9.83;4.80;;;8.40;99.90;;;;;;5053508;28;20416;-47
2022/02/05 11:44:58;;;;;;;14.33;4.47;;;8.40;99.90;;;;;;5054101;28;20417;-48
2022/02/05 11:47:27;;;;;;;14.57;6.00;;;8.30;99.90;;;;;;5053441;28;20419;-48
2022/02/05 11:50:16;;;;;;;10.50;4.90;;;8.30;99.90;;;;;;5053696;28;20427;-48
2022/02/05 11:53:09;;;;;;;12.60;5.23;;;8.30;99.90;;;;;;5054214;28;20458;-48
2022/02/05 11:55:46;;;;;;;15.73;3.23;;;8.20;99.90;;;;;;5054480;28;20462;-47
2022/02/05 11:58:16;;;;;;;10.10;3.53;;;8.20;99.90;;;;;;5053908;28;20441;-47
2022/02/05 12:00:55;;;;;;;14.47;3.50;;;8.20;99.90;;;;;;5053934;28;21028;-49
2022/02/05 12:03:34;;;;;;;8.53;3.20;;;8.30;99.90;;;;;;5053899;28;20471;-48
2022/02/05 12:06:09;;;;;;;18.37;3.90;;;8.30;99.90;;;;;;5053758;28;20442;-47
2022/02/05 12:08:39;;;;;;;10.93;3.83;;;8.30;99.90;;;;;;5053074;28;20425;-48
2022/02/05 12:11:29;;;;;;;8.87;4.03;;;8.40;99.90;;;;;;5053718;28;20405;-49
2022/02/05 12:14:17;;;;;;;17.53;4.20;;;8.60;99.90;;;;;;5052757;28;20455;-47
2022/02/05 12:17:14;;;;;;;11.10;2.90;;;8.80;99.90;;;;;;5052728;28;20439;-48
2022/02/05 12:19:59;;;;;;;7.60;3.60;;;8.90;99.90;;;;;;5052781;28;20455;-48
2022/02/05 12:22:59;;;;;;;12.37;3.93;;;9.10;99.90;;;;;;5053428;28;20442;-49
2022/02/05 12:25:26;;;;;;;21.80;3.90;;;9.20;99.90;;;;;;5053532;28;20445;-49
2022/02/05 12:27:52;;;;;;;10.53;3.43;;;9.20;99.90;;;;;;5053455;28;20413;-48
2022/02/05 12:30:42;;;;;;;8.73;2.97;;;9.20;99.90;;;;;;5053118;28;20951;-48
2022/02/05 12:33:11;;;;;;;11.53;3.10;;;9.10;99.90;;;;;;5053653;28;21032;-47
2022/02/05 12:35:49;;;;;;;13.10;3.43;;;9.10;99.90;;;;;;5052832;28;20470;-47
2022/02/05 12:38:15;;;;;;;13.40;4.27;;;9.20;99.90;;;;;;5052799;28;20434;-48
2022/02/05 12:40:44;;;;;;;13.83;4.00;;;9.10;99.90;;;;;;5052536;28;20478;-47
2022/02/05 12:43:13;;;;;;;7.63;3.20;;;9.10;99.90;;;;;;5052738;28;20535;-47
2022/02/05 12:45:49;;;;;;;15.40;3.20;;;9.10;99.90;;;;;;5052422;28;20810;-47
2022/02/05 12:48:21;;;;;;;14.30;3.57;;;9.10;99.90;;;;;;5052575;28;20459;-48
2022/02/05 12:50:49;;;;;;;13.33;3.50;;;9.10;99.90;;;;;;5052038;28;20791;-48
2022/02/05 12:53:17;;;;;;;13.30;3.40;;;9.10;99.90;;;;;;5052247;28;20542;-48
2022/02/05 12:55:47;;;;;;;9.10;2.90;;;9.10;99.90;;;;;;5052851;28;20443;-48
2022/02/05 12:58:18;;;;;;;9.63;3.80;;;9.10;99.90;;;;;;5053123;28;20402;-47
2022/02/05 13:00:45;;;;;;;10.03;4.90;;;9.20;99.90;;;;;;5052565;28;20441;-48
2022/02/05 13:03:24;;;;;;;11.10;2.97;;;9.10;99.50;;;;;;5052637;28;20878;-48
2022/02/05 13:05:50;;;;;;;13.90;3.40;;;9.10;99.40;;;;;;5053127;28;20452;-46
2022/02/05 13:08:17;;;;;;;12.80;4.13;;;9.10;99.30;;;;;;5050610;28;20425;-49
2022/02/05 13:10:45;;;;;;;12.27;5.10;;;9.00;98.80;;;;;;5052440;28;20530;-48
2022/02/05 13:13:12;;;;;;;14.30;3.77;;;9.00;99.10;;;;;;5052299;28;20501;-48
2022/02/05 13:15:39;;;;;;;15.13;3.63;;;8.90;99.00;;;;;;5052676;28;20816;-48
2022/02/05 13:18:16;;;;;;;10.43;3.10;;;8.80;98.90;;;;;;5052282;28;20476;-48
2022/02/05 13:26:18;;;;;;;10.23;2.63;;;8.80;99.40;;;;;;5052174;28;20895;-47
2022/02/05 13:28:54;;;;;;;9.40;2.93;;;8.90;99.40;;;;;;5051709;28;20997;-48
2022/02/05 13:34:15;;;;;;;10.40;4.13;;;8.80;99.10;;;;;;5051995;28;20436;-48
2022/02/05 13:36:49;;;;;;;9.93;3.43;;;8.80;99.40;;;;;;5051916;28;20935;-46
2022/02/05 13:39:35;;;;;;;19.90;3.40;;;8.70;99.20;;;;;;5050655;28;20446;-46
2022/02/05 13:42:07;;;;;;;13.83;4.13;;;8.70;99.30;;;;;;5051738;28;20481;-47
2022/02/05 13:44:52;;;;;;;9.03;2.90;;;8.70;99.40;;;;;;5051027;28;20484;-47
2022/02/05 13:47:19;;;;;;;14.30;3.63;;;8.70;99.40;;;;;;5051395;28;20438;-47
2022/02/05 13:49:59;;;;;;;8.87;2.77;;;8.60;99.50;;;;;;5051545;28;20492;-49
2022/02/05 13:52:35;;;;;;;9.10;3.67;;;8.70;99.70;;;;;;5051759;28;20800;-51
2022/02/05 13:55:18;;;;;;;9.53;2.90;;;8.80;99.80;;;;;;5051982;28;20442;-48
2022/02/05 13:58:03;;;;;;;10.40;3.60;;;8.80;99.80;;;;;;5051649;28;20473;-48
2022/02/05 14:00:45;;;;;;;23.53;4.40;;;8.80;99.60;;;;;;5050737;28;20563;-48
2022/02/05 14:03:13;;;;;;;5.30;2.33;;;8.70;99.30;;;;;;5049905;28;20562;-49
2022/02/05 14:05:44;;;;;;;8.30;2.80;;;8.70;99.10;;;;;;5051698;28;20435;-47
2022/02/05 14:08:24;;;;;;;9.43;2.97;;;8.70;98.90;;;;;;5050933;28;20437;-47
2022/02/05 14:10:55;;;;;;;13.70;5.43;;;8.60;98.50;;;;;;5051569;28;20462;-47
2022/02/05 14:13:22;;;;;;;17.30;4.83;;;8.50;98.70;;;;;;5050966;28;20548;-48
2022/02/05 14:15:53;;;;;;;20.70;4.30;;;8.60;98.90;;;;;;5051377;28;20439;-48
2022/02/05 14:18:21;;;;;;;12.30;2.80;;;8.60;98.90;;;;;;5050832;28;20444;-48
2022/02/05 14:20:52;;;;;;;8.97;2.57;;;8.60;99.10;;;;;;5050900;28;20503;-48
2022/02/05 14:23:22;;;;;;;7.27;3.00;;;8.60;98.80;;;;;;5050967;28;20481;-46
2022/02/05 14:26:01;;;;;;;13.23;3.70;;;8.60;98.80;;;;;;5051034;28;20451;-47
2022/02/05 14:28:32;;;;;;;12.90;4.30;;;8.60;98.90;;;;;;5033484;28;20459;-47
2022/02/05 14:34:04;;;;;;;12.53;3.50;;;8.60;98.80;;;;;;5030831;28;20463;-47
2022/02/05 14:36:42;;;;;;;9.90;2.60;;;8.60;98.70;;;;;;5029992;28;20439;-49
2022/02/05 14:41:58;;;;;;;13.40;5.03;;;8.50;98.40;;;;;;5050955;28;20537;-47
2022/02/05 14:44:25;;;;;;;9.27;3.03;;;8.50;98.50;;;;;;5050606;28;20935;-48
2022/02/05 14:46:52;;;;;;;9.77;3.23;;;8.60;98.40;;;;;;5050614;28;20434;-48
2022/02/05 14:49:18;;;;;;;13.67;3.63;;;8.60;98.00;;;;;;5050573;28;20442;-48
2022/02/05 14:51:46;;;;;;;10.30;2.97;;;8.60;98.10;;;;;;5051133;28;20434;-46
2022/02/05 14:54:14;;;;;;;11.03;3.07;;;8.60;98.00;;;;;;5051450;28;20477;-47
2022/02/05 14:56:41;;;;;;;10.80;3.67;;;8.60;97.90;;;;;;5051220;28;20439;-46